»·PEaware :: ASA61 KSAN-KTUS

ASA61 :: KSAN-KTUS

FLIGHT INFORMATION

Flight Status: Arrived
Operator:
Alaska Airlines
More flights by this operator :: More flights under this callsign
Pilot: Steve F. (26981)
Aircraft: BOEING 737-800
(B738)
More flights by this aircraft type
Origin: KSAN San Diego Intl-Lindbergh
United States
Destination: KTUS Tucson Intl
United States
More flights between these airports :: More routes between these airports
Route: +ZZOOO2 IPL J18 GBN DINGO5
File this flight plan on PilotEdge
Remarks:
Altitude:
(Current/Filed)
33,000ft
Speed:
(Current/Filed)
430kts
Departed: 27-Sep-20 04:43 PM
Arrived: 27-Sep-20 05:41 PM
Distance/Time
Traveled:
319nm/0:58
Distance/Time
To Go:
Arrived

Flight Plot

Page will automatically refresh every two minutes.

Flight plan parsing failed; only flown route is shown


Map Options




Map Legend


Flown Route
Filed Route
Departure Airport
Arrival Airport
Navaid (VOR, NDB)
Fix

Horizontal Profiles

Position Reports

Time Latitude Longitude Heading Altitude Ground
Speed
27-Sep-20 16:18 32.733794 -117.198497 180 23ft 0kts
27-Sep-20 16:19 32.733794 -117.198497 180 23ft 0kts
27-Sep-20 16:20 32.733794 -117.198497 180 23ft 0kts
27-Sep-20 16:21 32.733794 -117.198497 180 23ft 0kts
27-Sep-20 16:22 32.733794 -117.198497 180 23ft 0kts
27-Sep-20 16:23 32.733794 -117.198497 180 23ft 0kts
27-Sep-20 16:24 32.733794 -117.198497 180 23ft 0kts
27-Sep-20 16:25 32.733794 -117.198497 180 23ft 0kts
27-Sep-20 16:26 32.734197 -117.198640 140 23ft 2kts
27-Sep-20 16:27 32.734350 -117.198872 115 23ft 0kts
27-Sep-20 16:28 32.734350 -117.198870 115 23ft 0kts
27-Sep-20 16:29 32.734410 -117.197130 104 23ft 11kts
27-Sep-20 16:30 32.732992 -117.191233 105 23ft 24kts
27-Sep-20 16:31 32.731377 -117.184363 106 23ft 21kts
27-Sep-20 16:32 32.729577 -117.176782 97 23ft 11kts
27-Sep-20 16:33 32.729629 -117.176435 67 23ft 0kts
27-Sep-20 16:34 32.729630 -117.176433 67 23ft 0kts
27-Sep-20 16:35 32.729631 -117.176431 67 23ft 0kts
27-Sep-20 16:36 32.729631 -117.176430 67 23ft 0kts
27-Sep-20 16:37 32.729632 -117.176428 67 23ft 0kts
27-Sep-20 16:38 32.729632 -117.176426 67 23ft 0kts
27-Sep-20 16:40 32.729633 -117.176426 67 23ft 0kts
27-Sep-20 16:41 32.729639 -117.176409 67 23ft 1kts
27-Sep-20 16:42 32.732058 -117.183463 285 23ft 106kts
27-Sep-20 16:43 32.746585 -117.239460 285 2198ft 202kts
27-Sep-20 16:44 32.747460 -117.311944 229 4450ft 253kts
27-Sep-20 16:45 32.681213 -117.309030 134 6976ft 280kts
27-Sep-20 16:46 32.634261 -117.235263 111 9980ft 287kts
27-Sep-20 16:47 32.621013 -117.134400 94 11537ft 343kts
27-Sep-20 16:48 32.610626 -117.012877 95 13212ft 382kts
27-Sep-20 16:49 32.608202 -116.885778 80 15634ft 393kts
27-Sep-20 16:50 32.632442 -116.756941 80 17817ft 405kts
27-Sep-20 16:51 32.645514 -116.622104 83 19835ft 417kts
27-Sep-20 16:52 32.658324 -116.483789 82 21593ft 426kts
27-Sep-20 16:53 32.672046 -116.342792 82 23146ft 435kts
27-Sep-20 16:54 32.685761 -116.198508 82 24499ft 443kts
27-Sep-20 16:55 32.699335 -116.052060 82 25746ft 450kts
27-Sep-20 16:56 32.713087 -115.903308 82 26921ft 456kts
27-Sep-20 16:57 32.727102 -115.752675 82 27962ft 462kts
27-Sep-20 16:58 32.740751 -115.600081 82 29183ft 462kts
27-Sep-20 16:59 32.751447 -115.448804 87 30659ft 459kts
27-Sep-20 17:00 32.754274 -115.297778 87 32097ft 456kts
27-Sep-20 17:01 32.757452 -115.147201 86 32886ft 455kts
27-Sep-20 17:02 32.760540 -114.997457 86 32875ft 454kts
27-Sep-20 17:03 32.763746 -114.848250 86 32856ft 454kts
27-Sep-20 17:04 32.766470 -114.697215 87 32838ft 455kts
27-Sep-20 17:05 32.768891 -114.547143 87 32834ft 455kts
27-Sep-20 17:06 32.771095 -114.396875 87 32838ft 454kts
27-Sep-20 17:07 32.773004 -114.246863 87 32839ft 454kts
27-Sep-20 17:08 32.774588 -114.096184 87 32839ft 454kts
27-Sep-20 17:09 32.779516 -113.946580 79 32841ft 454kts
27-Sep-20 17:10 32.800822 -113.798681 78 32844ft 453kts
27-Sep-20 17:11 32.821818 -113.650888 78 32849ft 454kts
27-Sep-20 17:12 32.842527 -113.503126 78 32855ft 454kts
27-Sep-20 17:13 32.863139 -113.354452 78 31920ft 455kts
27-Sep-20 17:14 32.883953 -113.205425 78 29521ft 459kts
27-Sep-20 17:15 32.904895 -113.054102 78 27117ft 466kts
27-Sep-20 17:16 32.925949 -112.901104 79 24724ft 470kts
27-Sep-20 17:17 32.946013 -112.751234 79 23920ft 452kts
27-Sep-20 17:18 32.929570 -112.604382 110 23099ft 459kts
27-Sep-20 17:19 32.877035 -112.468008 113 20894ft 445kts
27-Sep-20 17:20 32.825681 -112.336139 113 18693ft 434kts
27-Sep-20 17:21 32.776158 -112.207926 113 16496ft 421kts
27-Sep-20 17:22 32.727937 -112.083704 114 14562ft 407kts
27-Sep-20 17:23 32.680984 -111.963125 114 12759ft 396kts
27-Sep-20 17:24 32.635176 -111.845809 115 11265ft 389kts
27-Sep-20 17:25 32.589275 -111.729366 115 10934ft 390kts
27-Sep-20 17:27 32.540725 -111.614277 124 10937ft 390kts
27-Sep-20 17:28 32.473518 -111.513024 126 10960ft 390kts
27-Sep-20 17:29 32.413063 -111.415096 126 10972ft 339kts
27-Sep-20 17:30 32.360864 -111.331317 128 10862ft 300kts
27-Sep-20 17:31 32.302765 -111.259684 135 9476ft 301kts
27-Sep-20 17:32 32.244780 -111.189341 135 8991ft 299kts
27-Sep-20 17:33 32.186162 -111.117902 135 8910ft 301kts
27-Sep-20 17:34 32.126034 -111.052972 142 7909ft 286kts
27-Sep-20 17:35 32.066120 -110.994701 142 7065ft 268kts
27-Sep-20 17:36 32.009746 -110.942490 145 6403ft 242kts
27-Sep-20 17:37 31.992480 -110.885841 50 5933ft 189kts
27-Sep-20 17:38 32.035314 -110.852989 355 4660ft 178kts
27-Sep-20 17:39 32.071214 -110.886587 314 3577ft 156kts
27-Sep-20 17:40 32.101143 -110.921842 314 2689ft 146kts
27-Sep-20 17:41 32.113397 -110.935039 46 2651ft 6kts
27-Sep-20 17:42 32.116455 -110.938172 314 2651ft 23kts
27-Sep-20 17:43 32.119165 -110.938558 40 2651ft 0kts
27-Sep-20 17:44 32.119165 -110.938558 40 2651ft 0kts

Navigation Log

Ident Type
Flight plan parsing failed, navigation log unavailable